Hansa Limburg — A8IH6 — position and weather

sailwx.info

Track history (hours):
 
Tides and Currents Weather Stations Pressure Air Temp Water Temp Dewpoint Dewpoint Depression Visibility Wind Speed Wind Dir Waves Ship Positions

Hansa Limburg

Last reported at 2017-Apr-25 14:31 UTC. Time now 2017-Apr-26 04:12 UTC.
Position N 45°19' E 014°26'.

Length 175.5 m; beam 27.4 m; draft 10.9 m.

Type: Ship (hazmat cat A). MMSI: 636090980.

Date/timePositionNaut miles runAvg speedWind from/ knotsBaromVisibWave heightAir tempDewpointWater temp
2017-Apr-25 14:31N 45°19' E 014°26'3 6.1
2017-Apr-25 14:00N 45°17' E 014°23'510.9
2017-Apr-25 13:31N 45°13' E 014°18'711.6
2017-Apr-25 12:57N 45°07' E 014°15'511.6
2017-Apr-25 12:30N 45°02' E 014°14'611.5
2017-Apr-25 12:01N 44°56' E 014°12'611.7
2017-Apr-25 11:31N 44°51' E 014°08'611.8
2017-Apr-25 11:00N 44°45' E 014°05'611.6
2017-Apr-25 10:30N 44°40' E 014°02'611.3
2017-Apr-25 10:01N 44°35' E 014°05'611.5
2017-Apr-25 09:30N 44°29' E 014°09'611.5
2017-Apr-25 09:01N 44°24' E 014°12'611.6
2017-Apr-25 08:30N 44°19' E 014°16'611.7
2017-Apr-25 08:00N 44°14' E 014°19'  
2017-Apr-21 09:16N 32°18' E 030°58'413.4
2017-Apr-21 08:59N 32°16' E 031°01'713.4
2017-Apr-21 08:29N 32°12' E 031°07'1115.9
2017-Apr-21 07:49N 32°05' E 031°17'516.8
2017-Apr-21 07:30N 32°02' E 031°22'816.6
2017-Apr-21 07:00N 31°56' E 031°30'815.7
2017-Apr-21 06:30N 31°51' E 031°37'815.9
2017-Apr-21 06:00N 31°45' E 031°42'612.4
2017-Apr-21 05:30N 31°40' E 031°47'510.4
2017-Apr-21 05:00N 31°35' E 031°47'6 9.2
2017-Apr-21 04:22N 31°29' E 031°45'1 0.8
2017-Apr-21 02:59N 31°28' E 031°45'0 0.0
2017-Apr-21 01:49N 31°28' E 031°45'0 0.0
2017-Apr-21 01:28N 31°28' E 031°45'0 0.0
2017-Apr-21 01:00N 31°28' E 031°45'0 0.0
2017-Apr-21 00:30N 31°28' E 031°45'0 0.0
2017-Apr-21 00:01N 31°28' E 031°45'0 0.0
2017-Apr-20 23:30N 31°28' E 031°45'0 0.0
2017-Apr-20 23:01N 31°28' E 031°45'0 0.0
2017-Apr-20 22:31N 31°28' E 031°45'0 0.0
2017-Apr-20 22:01N 31°28' E 031°45'0 0.0
2017-Apr-20 21:29N 31°28' E 031°45'0 0.0
2017-Apr-20 20:55N 31°28' E 031°45'0 0.0
2017-Apr-20 20:27N 31°28' E 031°45'0 0.0
2017-Apr-20 19:44N 31°28' E 031°45'0 0.1
2017-Apr-20 19:30N 31°28' E 031°45'0 0.1
2017-Apr-20 19:00N 31°28' E 031°45'0 0.0
2017-Apr-20 18:14N 31°28' E 031°45'0 0.0
2017-Apr-20 18:00N 31°28' E 031°45'0 0.0
2017-Apr-20 17:30N 31°28' E 031°45'0 0.0
2017-Apr-20 16:59N 31°28' E 031°45'0 0.0
2017-Apr-20 16:30N 31°28' E 031°45'0 0.0
2017-Apr-20 15:26N 31°28' E 031°45'0 0.0
2017-Apr-20 14:53N 31°28' E 031°45'0 0.0
2017-Apr-20 14:29N 31°28' E 031°45'0 0.0
2017-Apr-20 11:35N 31°28' E 031°45'0 0.0
2017-Apr-20 11:29N 31°28' E 031°45'0 0.0
2017-Apr-20 11:00N 31°28' E 031°45'0 0.0
2017-Apr-20 10:30N 31°28' E 031°45'0 0.0
2017-Apr-20 09:57N 31°28' E 031°45'0 0.0
2017-Apr-20 09:26N 31°28' E 031°45'0 0.0
2017-Apr-20 09:00N 31°28' E 031°45'34 1.8
2017-Apr-19 13:48N 31°13' E 032°21'0 0.0
2017-Apr-19 13:31N 31°13' E 032°21'0 0.0
2017-Apr-19 13:00N 31°13' E 032°21'  
Track history (hours):
 
Tides and Currents Weather Stations Pressure Air Temp Water Temp Dewpoint Dewpoint Depression Visibility Wind Speed Wind Dir Waves Ship Positions

Hansa Limburg

Last reported at 2017-Apr-25 14:31 UTC. Time now 2017-Apr-26 04:12 UTC.
Position N 45°19' E 014°26'.

Length 175.5 m; beam 27.4 m; draft 10.9 m.

Type: Ship (hazmat cat A). MMSI: 636090980.

Date/timePositionNaut miles runAvg speedWind from/ knotsBaromVisibWave heightAir tempDewpointWater temp
2017-Apr-25 14:31N 45°19' E 014°26'3 6.1
2017-Apr-25 14:00N 45°17' E 014°23'510.9
2017-Apr-25 13:31N 45°13' E 014°18'711.6
2017-Apr-25 12:57N 45°07' E 014°15'511.6
2017-Apr-25 12:30N 45°02' E 014°14'611.5
2017-Apr-25 12:01N 44°56' E 014°12'611.7
2017-Apr-25 11:31N 44°51' E 014°08'611.8
2017-Apr-25 11:00N 44°45' E 014°05'611.6
2017-Apr-25 10:30N 44°40' E 014°02'611.3
2017-Apr-25 10:01N 44°35' E 014°05'611.5
2017-Apr-25 09:30N 44°29' E 014°09'611.5
2017-Apr-25 09:01N 44°24' E 014°12'611.6
2017-Apr-25 08:30N 44°19' E 014°16'611.7
2017-Apr-25 08:00N 44°14' E 014°19'  
2017-Apr-21 09:16N 32°18' E 030°58'413.4
2017-Apr-21 08:59N 32°16' E 031°01'713.4
2017-Apr-21 08:29N 32°12' E 031°07'1115.9
2017-Apr-21 07:49N 32°05' E 031°17'516.8
2017-Apr-21 07:30N 32°02' E 031°22'816.6
2017-Apr-21 07:00N 31°56' E 031°30'815.7
2017-Apr-21 06:30N 31°51' E 031°37'815.9
2017-Apr-21 06:00N 31°45' E 031°42'612.4
2017-Apr-21 05:30N 31°40' E 031°47'510.4
2017-Apr-21 05:00N 31°35' E 031°47'6 9.2
2017-Apr-21 04:22N 31°29' E 031°45'1 0.8
2017-Apr-21 02:59N 31°28' E 031°45'0 0.0
2017-Apr-21 01:49N 31°28' E 031°45'0 0.0
2017-Apr-21 01:28N 31°28' E 031°45'0 0.0
2017-Apr-21 01:00N 31°28' E 031°45'0 0.0
2017-Apr-21 00:30N 31°28' E 031°45'0 0.0
2017-Apr-21 00:01N 31°28' E 031°45'0 0.0
2017-Apr-20 23:30N 31°28' E 031°45'0 0.0
2017-Apr-20 23:01N 31°28' E 031°45'0 0.0
2017-Apr-20 22:31N 31°28' E 031°45'0 0.0
2017-Apr-20 22:01N 31°28' E 031°45'0 0.0
2017-Apr-20 21:29N 31°28' E 031°45'0 0.0
2017-Apr-20 20:55N 31°28' E 031°45'0 0.0
2017-Apr-20 20:27N 31°28' E 031°45'0 0.0
2017-Apr-20 19:44N 31°28' E 031°45'0 0.1
2017-Apr-20 19:30N 31°28' E 031°45'0 0.1
2017-Apr-20 19:00N 31°28' E 031°45'0 0.0
2017-Apr-20 18:14N 31°28' E 031°45'0 0.0
2017-Apr-20 18:00N 31°28' E 031°45'0 0.0
2017-Apr-20 17:30N 31°28' E 031°45'0 0.0
2017-Apr-20 16:59N 31°28' E 031°45'0 0.0
2017-Apr-20 16:30N 31°28' E 031°45'0 0.0
2017-Apr-20 15:26N 31°28' E 031°45'0 0.0
2017-Apr-20 14:53N 31°28' E 031°45'0 0.0
2017-Apr-20 14:29N 31°28' E 031°45'0 0.0
2017-Apr-20 11:35N 31°28' E 031°45'0 0.0
2017-Apr-20 11:29N 31°28' E 031°45'0 0.0
2017-Apr-20 11:00N 31°28' E 031°45'0 0.0
2017-Apr-20 10:30N 31°28' E 031°45'0 0.0
2017-Apr-20 09:57N 31°28' E 031°45'0 0.0
2017-Apr-20 09:26N 31°28' E 031°45'0 0.0
2017-Apr-20 09:00N 31°28' E 031°45'34 1.8
2017-Apr-19 13:48N 31°13' E 032°21'0 0.0
2017-Apr-19 13:31N 31°13' E 032°21'0 0.0
2017-Apr-19 13:00N 31°13' E 032°21'  

Dump ship's entire track history